Cfl Performer — PHLY — position and weather

sailwx.info

Track history (hours):
 
Tides and Currents Weather Stations Pressure Air Temp Water Temp Dewpoint Dewpoint Depression Visibility Wind Speed Wind Dir Waves Ship Positions

Cfl Performer

Last reported at 2018-Jun-25 17:29 UTC. Time now 2018-Jun-25 17:51 UTC.
Position N 46°10' W 001°14'.

Length 117 m; draft 6.3 m.

Type: Cargo ship. MMSI: 244989000.

Date/timePositionNaut miles runAvg speedWind from/ knotsBaromVisibWave heightAir tempDewpointWater temp
2018-Jun-25 17:29N 46°10' W 001°14'0 0.0
2018-Jun-25 16:59N 46°10' W 001°14'0 0.0
2018-Jun-25 16:29N 46°10' W 001°14'0 0.0
2018-Jun-25 15:59N 46°10' W 001°14'0 0.0
2018-Jun-25 15:29N 46°10' W 001°14'0 0.0
2018-Jun-25 14:59N 46°10' W 001°14'0 0.0
2018-Jun-25 14:29N 46°10' W 001°14'0 0.0
2018-Jun-25 13:59N 46°10' W 001°14'0 0.0
2018-Jun-25 13:29N 46°10' W 001°14'0 0.2
2018-Jun-25 13:00N 46°10' W 001°14'3 6.0
2018-Jun-25 12:30N 46°07' W 001°15'2 4.0
2018-Jun-25 12:00N 46°05' W 001°15'2 2.9
2018-Jun-25 11:29N 46°04' W 001°13'0 0.0
2018-Jun-25 10:59N 46°04' W 001°13'0 0.1
2018-Jun-25 10:29N 46°04' W 001°13'0 0.1
2018-Jun-25 09:59N 46°04' W 001°13'0 0.1
2018-Jun-25 09:29N 46°04' W 001°13'0 0.1
2018-Jun-25 08:59N 46°04' W 001°14'0 0.0
2018-Jun-25 08:29N 46°04' W 001°14'0 0.2
2018-Jun-25 07:59N 46°04' W 001°14'0 0.0
2018-Jun-25 07:29N 46°04' W 001°14'0 0.1
2018-Jun-25 06:59N 46°04' W 001°14'0 0.0
2018-Jun-25 06:29N 46°04' W 001°14'0 0.0
2018-Jun-25 05:59N 46°04' W 001°14'0 0.0
2018-Jun-25 05:29N 46°04' W 001°14'0 0.1
2018-Jun-25 04:59N 46°04' W 001°14'0 0.0
2018-Jun-25 04:29N 46°04' W 001°14'0 0.1
2018-Jun-25 03:59N 46°04' W 001°14'0 0.0
2018-Jun-25 03:29N 46°04' W 001°14'0 0.1
2018-Jun-25 02:59N 46°04' W 001°14'0 0.1
2018-Jun-25 02:29N 46°04' W 001°14'0 0.1
2018-Jun-25 01:59N 46°04' W 001°14'0 0.0
2018-Jun-25 01:29N 46°04' W 001°14'0 0.1
2018-Jun-25 00:59N 46°04' W 001°14'0 0.0
2018-Jun-25 00:29N 46°04' W 001°14'0 0.0
2018-Jun-24 23:59N 46°04' W 001°13'0 0.0
2018-Jun-24 23:29N 46°04' W 001°13'0 0.0
2018-Jun-24 22:59N 46°04' W 001°13'0 0.0
2018-Jun-24 22:29N 46°04' W 001°13'0 0.0
2018-Jun-24 21:59N 46°04' W 001°13'0 0.1
2018-Jun-24 21:29N 46°04' W 001°13'0 0.0
2018-Jun-24 20:59N 46°04' W 001°13'0 0.1
2018-Jun-24 20:29N 46°04' W 001°13'0 0.0
2018-Jun-24 19:59N 46°04' W 001°13'0 0.1
2018-Jun-24 19:29N 46°04' W 001°14'0 0.1
2018-Jun-24 18:59N 46°04' W 001°14'1 2.8
2018-Jun-24 18:30N 46°04' W 001°15'5 9.2
2018-Jun-24 18:00N 46°06' W 001°22'5 9.1
2018-Jun-24 17:30N 46°06' W 001°28'5 9.1
2018-Jun-24 17:00N 46°07' W 001°35'5 9.6
2018-Jun-24 16:30N 46°05' W 001°41'510.0
2018-Jun-24 16:00N 46°03' W 001°47'510.0
2018-Jun-24 15:28N 46°00' W 001°54'2610.6
2018-Jun-24 13:03N 45°49' W 002°28'110.7
2018-Jun-24 12:59N 45°49' W 002°29'2010.5
2018-Jun-24 11:07N 45°40' W 002°54'110.4
2018-Jun-24 11:00N 45°40' W 002°55'510.4
2018-Jun-24 10:30N 45°38' W 003°02'1310.7
2018-Jun-24 09:15N 45°32' W 003°19'910.1
2018-Jun-24 08:23N 45°28' W 003°31'4 9.7
2018-Jun-24 07:59N 45°26' W 003°36'510.0
2018-Jun-24 07:30N 45°24' W 003°42'510.5
2018-Jun-24 07:00N 45°22' W 003°49'610.2
2018-Jun-24 06:28N 45°20' W 003°56'5 9.8
2018-Jun-24 06:00N 45°18' W 004°02'16 9.9
2018-Jun-24 04:23N 45°11' W 004°22'396 7.8
2018-Jun-22 01:29N 39°56' W 009°49'710.1
2018-Jun-22 00:48N 39°49' W 009°49'410.3
2018-Jun-22 00:27N 39°46' W 009°49'510.4
2018-Jun-22 00:00N 39°41' W 009°49'710.3
2018-Jun-21 23:19N 39°34' W 009°50'310.3
2018-Jun-21 23:00N 39°31' W 009°50'510.3
2018-Jun-21 22:29N 39°26' W 009°50'510.5
2018-Jun-21 22:00N 39°21' W 009°49'5 9.9
2018-Jun-21 21:30N 39°16' W 009°50'510.1
2018-Jun-21 21:00N 39°11' W 009°50'510.0
2018-Jun-21 20:30N 39°06' W 009°50'5 9.9
2018-Jun-21 20:00N 39°01' W 009°50'510.2
2018-Jun-21 19:30N 38°56' W 009°50'5 9.8
2018-Jun-21 19:00N 38°51' W 009°50'5 9.7
2018-Jun-21 18:30N 38°46' W 009°50'5 9.5
2018-Jun-21 18:00N 38°41' W 009°50'5 9.6
2018-Jun-21 17:30N 38°36' W 009°48'5 9.6
2018-Jun-21 17:00N 38°32' W 009°47'5 9.3
2018-Jun-21 16:30N 38°27' W 009°46'5 9.7
2018-Jun-21 16:00N 38°23' W 009°44'5 9.9
2018-Jun-21 15:30N 38°18' W 009°43'5 9.3
2018-Jun-21 15:00N 38°13' W 009°41'5 9.5
2018-Jun-21 14:30N 38°09' W 009°40'510.2
2018-Jun-21 14:00N 38°03' W 009°39'510.3
2018-Jun-21 13:30N 37°59' W 009°37'510.0
2018-Jun-21 13:00N 37°54' W 009°36'510.0
2018-Jun-21 12:30N 37°49' W 009°34'510.1
2018-Jun-21 12:00N 37°44' W 009°33'510.0
2018-Jun-21 11:30N 37°39' W 009°31'1110.1
2018-Jun-21 10:23N 37°28' W 009°28'4010.4
2018-Jun-21 06:30N 36°49' W 009°13'510.3
2018-Jun-21 06:00N 36°46' W 009°09'8 9.8
2018-Jun-21 05:09N 36°43' W 008°59'2 9.8
2018-Jun-21 04:58N 36°43' W 008°57'6 9.8
2018-Jun-21 04:24N 36°44' W 008°50'4 9.9
2018-Jun-21 04:00N 36°44' W 008°45'910.1
2018-Jun-21 03:09N 36°44' W 008°34'310.1
2018-Jun-21 02:53N 36°44' W 008°31'4 9.9
2018-Jun-21 02:27N 36°44' W 008°26'6 9.9
2018-Jun-21 01:54N 36°44' W 008°19'410.3
2018-Jun-21 01:28N 36°44' W 008°13'510.4
2018-Jun-21 00:58N 36°44' W 008°07'510.2
2018-Jun-21 00:30N 36°44' W 008°01'  
Track history (hours):
 
Tides and Currents Weather Stations Pressure Air Temp Water Temp Dewpoint Dewpoint Depression Visibility Wind Speed Wind Dir Waves Ship Positions

Cfl Performer

Last reported at 2018-Jun-25 17:29 UTC. Time now 2018-Jun-25 17:51 UTC.
Position N 46°10' W 001°14'.

Length 117 m; draft 6.3 m.

Type: Cargo ship. MMSI: 244989000.

Date/timePositionNaut miles runAvg speedWind from/ knotsBaromVisibWave heightAir tempDewpointWater temp
2018-Jun-25 17:29N 46°10' W 001°14'0 0.0
2018-Jun-25 16:59N 46°10' W 001°14'0 0.0
2018-Jun-25 16:29N 46°10' W 001°14'0 0.0
2018-Jun-25 15:59N 46°10' W 001°14'0 0.0
2018-Jun-25 15:29N 46°10' W 001°14'0 0.0
2018-Jun-25 14:59N 46°10' W 001°14'0 0.0
2018-Jun-25 14:29N 46°10' W 001°14'0 0.0
2018-Jun-25 13:59N 46°10' W 001°14'0 0.0
2018-Jun-25 13:29N 46°10' W 001°14'0 0.2
2018-Jun-25 13:00N 46°10' W 001°14'3 6.0
2018-Jun-25 12:30N 46°07' W 001°15'2 4.0
2018-Jun-25 12:00N 46°05' W 001°15'2 2.9
2018-Jun-25 11:29N 46°04' W 001°13'0 0.0
2018-Jun-25 10:59N 46°04' W 001°13'0 0.1
2018-Jun-25 10:29N 46°04' W 001°13'0 0.1
2018-Jun-25 09:59N 46°04' W 001°13'0 0.1
2018-Jun-25 09:29N 46°04' W 001°13'0 0.1
2018-Jun-25 08:59N 46°04' W 001°14'0 0.0
2018-Jun-25 08:29N 46°04' W 001°14'0 0.2
2018-Jun-25 07:59N 46°04' W 001°14'0 0.0
2018-Jun-25 07:29N 46°04' W 001°14'0 0.1
2018-Jun-25 06:59N 46°04' W 001°14'0 0.0
2018-Jun-25 06:29N 46°04' W 001°14'0 0.0
2018-Jun-25 05:59N 46°04' W 001°14'0 0.0
2018-Jun-25 05:29N 46°04' W 001°14'0 0.1
2018-Jun-25 04:59N 46°04' W 001°14'0 0.0
2018-Jun-25 04:29N 46°04' W 001°14'0 0.1
2018-Jun-25 03:59N 46°04' W 001°14'0 0.0
2018-Jun-25 03:29N 46°04' W 001°14'0 0.1
2018-Jun-25 02:59N 46°04' W 001°14'0 0.1
2018-Jun-25 02:29N 46°04' W 001°14'0 0.1
2018-Jun-25 01:59N 46°04' W 001°14'0 0.0
2018-Jun-25 01:29N 46°04' W 001°14'0 0.1
2018-Jun-25 00:59N 46°04' W 001°14'0 0.0
2018-Jun-25 00:29N 46°04' W 001°14'0 0.0
2018-Jun-24 23:59N 46°04' W 001°13'0 0.0
2018-Jun-24 23:29N 46°04' W 001°13'0 0.0
2018-Jun-24 22:59N 46°04' W 001°13'0 0.0
2018-Jun-24 22:29N 46°04' W 001°13'0 0.0
2018-Jun-24 21:59N 46°04' W 001°13'0 0.1
2018-Jun-24 21:29N 46°04' W 001°13'0 0.0
2018-Jun-24 20:59N 46°04' W 001°13'0 0.1
2018-Jun-24 20:29N 46°04' W 001°13'0 0.0
2018-Jun-24 19:59N 46°04' W 001°13'0 0.1
2018-Jun-24 19:29N 46°04' W 001°14'0 0.1
2018-Jun-24 18:59N 46°04' W 001°14'1 2.8
2018-Jun-24 18:30N 46°04' W 001°15'5 9.2
2018-Jun-24 18:00N 46°06' W 001°22'5 9.1
2018-Jun-24 17:30N 46°06' W 001°28'5 9.1
2018-Jun-24 17:00N 46°07' W 001°35'5 9.6
2018-Jun-24 16:30N 46°05' W 001°41'510.0
2018-Jun-24 16:00N 46°03' W 001°47'510.0
2018-Jun-24 15:28N 46°00' W 001°54'2610.6
2018-Jun-24 13:03N 45°49' W 002°28'110.7
2018-Jun-24 12:59N 45°49' W 002°29'2010.5
2018-Jun-24 11:07N 45°40' W 002°54'110.4
2018-Jun-24 11:00N 45°40' W 002°55'510.4
2018-Jun-24 10:30N 45°38' W 003°02'1310.7
2018-Jun-24 09:15N 45°32' W 003°19'910.1
2018-Jun-24 08:23N 45°28' W 003°31'4 9.7
2018-Jun-24 07:59N 45°26' W 003°36'510.0
2018-Jun-24 07:30N 45°24' W 003°42'510.5
2018-Jun-24 07:00N 45°22' W 003°49'610.2
2018-Jun-24 06:28N 45°20' W 003°56'5 9.8
2018-Jun-24 06:00N 45°18' W 004°02'16 9.9
2018-Jun-24 04:23N 45°11' W 004°22'396 7.8
2018-Jun-22 01:29N 39°56' W 009°49'710.1
2018-Jun-22 00:48N 39°49' W 009°49'410.3
2018-Jun-22 00:27N 39°46' W 009°49'510.4
2018-Jun-22 00:00N 39°41' W 009°49'710.3
2018-Jun-21 23:19N 39°34' W 009°50'310.3
2018-Jun-21 23:00N 39°31' W 009°50'510.3
2018-Jun-21 22:29N 39°26' W 009°50'510.5
2018-Jun-21 22:00N 39°21' W 009°49'5 9.9
2018-Jun-21 21:30N 39°16' W 009°50'510.1
2018-Jun-21 21:00N 39°11' W 009°50'510.0
2018-Jun-21 20:30N 39°06' W 009°50'5 9.9
2018-Jun-21 20:00N 39°01' W 009°50'510.2
2018-Jun-21 19:30N 38°56' W 009°50'5 9.8
2018-Jun-21 19:00N 38°51' W 009°50'5 9.7
2018-Jun-21 18:30N 38°46' W 009°50'5 9.5
2018-Jun-21 18:00N 38°41' W 009°50'5 9.6
2018-Jun-21 17:30N 38°36' W 009°48'5 9.6
2018-Jun-21 17:00N 38°32' W 009°47'5 9.3
2018-Jun-21 16:30N 38°27' W 009°46'5 9.7
2018-Jun-21 16:00N 38°23' W 009°44'5 9.9
2018-Jun-21 15:30N 38°18' W 009°43'5 9.3
2018-Jun-21 15:00N 38°13' W 009°41'5 9.5
2018-Jun-21 14:30N 38°09' W 009°40'510.2
2018-Jun-21 14:00N 38°03' W 009°39'510.3
2018-Jun-21 13:30N 37°59' W 009°37'510.0
2018-Jun-21 13:00N 37°54' W 009°36'510.0
2018-Jun-21 12:30N 37°49' W 009°34'510.1
2018-Jun-21 12:00N 37°44' W 009°33'510.0
2018-Jun-21 11:30N 37°39' W 009°31'1110.1
2018-Jun-21 10:23N 37°28' W 009°28'4010.4
2018-Jun-21 06:30N 36°49' W 009°13'510.3
2018-Jun-21 06:00N 36°46' W 009°09'8 9.8
2018-Jun-21 05:09N 36°43' W 008°59'2 9.8
2018-Jun-21 04:58N 36°43' W 008°57'6 9.8
2018-Jun-21 04:24N 36°44' W 008°50'4 9.9
2018-Jun-21 04:00N 36°44' W 008°45'910.1
2018-Jun-21 03:09N 36°44' W 008°34'310.1
2018-Jun-21 02:53N 36°44' W 008°31'4 9.9
2018-Jun-21 02:27N 36°44' W 008°26'6 9.9
2018-Jun-21 01:54N 36°44' W 008°19'410.3
2018-Jun-21 01:28N 36°44' W 008°13'510.4
2018-Jun-21 00:58N 36°44' W 008°07'510.2
2018-Jun-21 00:30N 36°44' W 008°01'  

Dump ship's entire track history